Time;durP1;ratioP1;P1;durP2;ratioP2;P2;SDS_P1;SDS_P2;PMS_P1;PMS_P2;Temp;Humidity;BMP_temperature;BMP_pressure;BME280_temperature;BME280_humidity;BME280_pressure;Samples;Min_cycle;Max_cycle;Signal;HPM_P1;HPM_P2
2021/10/14 00:02:25;;;;;;;2.47;1.80;;;5.70;99.90;;;;;;4939688;28;20398;-85
2021/10/14 00:04:51;;;;;;;4.57;2.15;;;5.80;99.90;;;;;;4939742;28;20394;-86
2021/10/14 00:07:17;;;;;;;5.82;2.10;;;5.80;99.90;;;;;;4951414;28;20031;-85
2021/10/14 00:09:43;;;;;;;3.35;2.15;;;5.80;99.90;;;;;;4938465;28;20134;-86
2021/10/14 00:12:09;;;;;;;3.45;2.00;;;5.80;99.90;;;;;;4922433;28;20118;-85
2021/10/14 00:14:34;;;;;;;5.78;1.77;;;5.80;99.90;;;;;;4936056;28;20503;-85
2021/10/14 00:17:00;;;;;;;3.10;1.77;;;5.80;99.90;;;;;;4950461;28;21038;-85
2021/10/14 00:19:26;;;;;;;3.28;2.00;;;5.80;99.90;;;;;;4935931;28;20147;-85
2021/10/14 00:21:52;;;;;;;5.72;2.65;;;5.80;99.90;;;;;;4955220;28;20507;-86
2021/10/14 00:24:17;;;;;;;2.90;2.38;;;5.90;99.90;;;;;;4923786;28;20452;-86
2021/10/14 00:26:44;;;;;;;6.70;2.83;;;5.90;99.90;;;;;;4931455;28;20046;-86
2021/10/14 00:29:09;;;;;;;3.60;2.50;;;5.90;99.90;;;;;;4919904;29;20031;-85
2021/10/14 00:31:35;;;;;;;4.57;2.28;;;5.90;99.90;;;;;;4933785;28;20505;-85
2021/10/14 00:34:01;;;;;;;3.08;2.25;;;5.90;99.90;;;;;;4934806;28;20701;-85
2021/10/14 00:36:26;;;;;;;4.78;2.72;;;5.90;99.90;;;;;;4920530;28;20023;-86
2021/10/14 00:38:52;;;;;;;3.90;2.33;;;5.90;99.90;;;;;;4922388;28;20122;-86
2021/10/14 00:41:18;;;;;;;3.30;2.42;;;5.90;99.90;;;;;;4955046;28;20034;-85
2021/10/14 00:43:44;;;;;;;3.88;2.45;;;5.90;99.90;;;;;;4907945;28;20035;-86
2021/10/14 00:46:17;;;;;;;5.90;2.70;;;5.90;99.90;;;;;;4933282;28;20035;-86
2021/10/14 00:48:43;;;;;;;6.35;2.88;;;5.90;99.90;;;;;;4936201;28;20482;-85
2021/10/14 00:51:10;;;;;;;3.80;2.60;;;6.00;99.90;;;;;;4940267;28;20049;-85
2021/10/14 00:53:39;;;;;;;4.28;2.70;;;6.00;99.90;;;;;;4907798;28;20031;-85
2021/10/14 00:56:07;;;;;;;5.25;2.88;;;6.00;99.90;;;;;;4953569;28;20045;-85
2021/10/14 00:58:34;;;;;;;3.20;2.53;;;6.00;99.90;;;;;;4936743;28;20034;-86
2021/10/14 01:01:04;;;;;;;5.65;2.60;;;6.00;99.90;;;;;;4936599;28;20520;-85
2021/10/14 01:03:30;;;;;;;5.18;3.38;;;6.00;99.90;;;;;;4938232;28;20027;-85
2021/10/14 01:05:57;;;;;;;6.20;2.70;;;6.00;99.90;;;;;;4919802;28;20118;-86
2021/10/14 01:08:24;;;;;;;5.50;3.20;;;6.00;99.90;;;;;;4937849;28;20026;-85
2021/10/14 01:10:51;;;;;;;5.40;3.55;;;6.00;99.90;;;;;;4925012;28;20400;-86
2021/10/14 01:13:18;;;;;;;5.70;2.75;;;6.00;99.90;;;;;;4923057;28;20055;-86
2021/10/14 01:15:44;;;;;;;4.18;2.58;;;6.00;99.90;;;;;;4954365;28;20070;-86
2021/10/14 01:18:12;;;;;;;8.35;4.03;;;6.00;99.90;;;;;;4933613;28;20028;-85
2021/10/14 01:20:37;;;;;;;6.22;3.78;;;6.00;99.90;;;;;;4954985;28;20026;-86
2021/10/14 01:23:03;;;;;;;10.30;4.55;;;6.00;99.90;;;;;;4922717;28;20094;-86
2021/10/14 01:25:30;;;;;;;10.48;4.75;;;6.00;99.90;;;;;;4936821;28;20041;-85
2021/10/14 01:27:57;;;;;;;8.50;4.63;;;6.00;99.90;;;;;;4955981;28;20066;-86
2021/10/14 01:30:23;;;;;;;8.13;4.47;;;6.00;99.90;;;;;;4946464;28;20458;-85
2021/10/14 01:32:49;;;;;;;10.25;4.82;;;6.00;99.90;;;;;;4938756;28;20031;-85
2021/10/14 01:35:18;;;;;;;9.80;4.57;;;6.10;99.90;;;;;;4935834;28;20066;-86
2021/10/14 01:37:45;;;;;;;7.68;4.15;;;6.10;99.90;;;;;;4936862;28;20030;-84
2021/10/14 01:40:12;;;;;;;8.27;4.30;;;6.10;99.90;;;;;;4935598;28;20035;-85
2021/10/14 01:42:38;;;;;;;7.32;3.80;;;6.10;99.90;;;;;;4938569;28;20046;-86
2021/10/14 01:45:04;;;;;;;7.55;3.95;;;6.10;99.90;;;;;;4937684;28;20038;-87
2021/10/14 01:47:31;;;;;;;8.25;4.25;;;6.10;99.90;;;;;;4957518;28;20089;-87
2021/10/14 01:49:57;;;;;;;6.85;4.05;;;6.10;99.90;;;;;;4919491;28;20035;-86
2021/10/14 01:52:23;;;;;;;6.68;3.50;;;6.20;99.90;;;;;;4943682;28;20106;-85
2021/10/14 01:54:49;;;;;;;6.90;4.03;;;6.20;99.90;;;;;;4923881;28;20027;-86
2021/10/14 01:57:15;;;;;;;5.75;3.75;;;6.20;99.90;;;;;;4934095;28;20082;-85
2021/10/14 01:59:41;;;;;;;6.47;3.75;;;6.20;99.90;;;;;;4922242;28;20122;-86
2021/10/14 02:02:07;;;;;;;9.00;3.60;;;6.20;99.90;;;;;;4942090;28;20472;-86
2021/10/14 02:04:33;;;;;;;7.13;3.80;;;6.20;99.90;;;;;;4934016;29;20035;-86
2021/10/14 02:06:59;;;;;;;9.18;3.83;;;6.20;99.90;;;;;;4965999;28;20071;-86
2021/10/14 02:09:25;;;;;;;6.70;3.42;;;6.20;99.90;;;;;;4957369;28;20097;-86
2021/10/14 02:11:54;;;;;;;7.10;3.47;;;6.20;99.90;;;;;;4957679;28;20033;-86
2021/10/14 02:14:20;;;;;;;8.07;4.00;;;6.30;99.90;;;;;;4961151;28;20105;-86
2021/10/14 02:16:46;;;;;;;6.43;3.42;;;6.20;99.90;;;;;;4931530;28;20509;-86
2021/10/14 02:19:11;;;;;;;5.70;3.20;;;6.20;99.90;;;;;;4940927;28;20034;-85
2021/10/14 02:21:37;;;;;;;6.82;3.65;;;6.20;99.90;;;;;;4923177;28;20036;-85
2021/10/14 02:24:03;;;;;;;5.30;3.30;;;6.20;99.90;;;;;;4941982;28;20039;-86
2021/10/14 02:26:29;;;;;;;3.28;2.33;;;6.20;99.90;;;;;;4939422;28;20019;-85
2021/10/14 02:28:54;;;;;;;2.13;1.58;;;6.20;99.90;;;;;;4924764;28;20043;-85
2021/10/14 02:31:20;;;;;;;4.03;2.35;;;6.20;99.90;;;;;;4941488;28;20031;-85
2021/10/14 02:33:46;;;;;;;2.90;1.70;;;6.20;99.90;;;;;;4957636;28;20063;-84
2021/10/14 02:36:12;;;;;;;3.30;1.75;;;6.20;99.90;;;;;;4964325;28;20034;-85
2021/10/14 02:38:38;;;;;;;3.35;1.70;;;6.20;99.90;;;;;;4927774;28;20026;-85
2021/10/14 02:41:03;;;;;;;3.70;1.75;;;6.20;99.90;;;;;;4941031;28;20394;-85
2021/10/14 02:43:29;;;;;;;4.45;2.03;;;6.20;99.90;;;;;;4922825;28;20035;-86
2021/10/14 02:45:55;;;;;;;3.55;2.15;;;6.20;99.90;;;;;;4921968;28;20497;-86
2021/10/14 02:48:21;;;;;;;3.95;1.48;;;6.20;99.90;;;;;;4925680;28;20031;-86
2021/10/14 02:50:47;;;;;;;4.50;2.00;;;6.20;99.90;;;;;;4939189;28;20027;-86
2021/10/14 02:53:12;;;;;;;4.45;1.65;;;6.20;99.90;;;;;;4935085;28;20050;-86
2021/10/14 02:55:38;;;;;;;2.67;1.90;;;6.20;99.90;;;;;;4950908;28;20136;-87
2021/10/14 02:58:04;;;;;;;3.10;2.13;;;6.20;99.90;;;;;;4940431;28;20070;-86
2021/10/14 03:00:30;;;;;;;5.75;2.08;;;6.20;99.90;;;;;;4969525;28;20030;-86
2021/10/14 03:02:55;;;;;;;3.58;2.22;;;6.10;99.90;;;;;;4930062;29;20042;-86
2021/10/14 03:05:21;;;;;;;3.08;2.13;;;6.10;99.90;;;;;;4956550;28;20066;-87
2021/10/14 03:07:47;;;;;;;3.33;1.90;;;6.10;99.90;;;;;;4939580;28;20387;-87
2021/10/14 03:10:13;;;;;;;3.47;1.90;;;6.10;99.90;;;;;;4920767;28;20038;-87
2021/10/14 03:12:39;;;;;;;4.03;2.35;;;6.10;99.90;;;;;;4924358;28;20724;-87
2021/10/14 03:15:05;;;;;;;3.47;2.13;;;6.10;99.90;;;;;;4957186;28;20039;-87
2021/10/14 03:17:31;;;;;;;2.88;2.10;;;6.00;99.90;;;;;;4966710;28;20035;-87
2021/10/14 03:19:57;;;;;;;3.30;2.30;;;6.10;99.90;;;;;;4956024;28;20105;-87
2021/10/14 03:22:22;;;;;;;6.68;2.70;;;6.10;99.90;;;;;;4928317;28;20043;-88
2021/10/14 03:24:48;;;;;;;5.13;2.53;;;6.00;99.90;;;;;;4928664;28;20043;-87
2021/10/14 03:27:14;;;;;;;4.95;3.20;;;6.00;99.90;;;;;;4936796;28;20058;-87
2021/10/14 03:29:39;;;;;;;5.78;3.22;;;6.00;99.90;;;;;;4924669;28;20405;-88
2021/10/14 03:32:05;;;;;;;6.55;3.30;;;6.00;99.90;;;;;;4937670;29;20047;-88
2021/10/14 03:34:31;;;;;;;7.03;4.82;;;6.00;99.90;;;;;;4940049;28;20066;-88
2021/10/14 03:36:57;;;;;;;9.27;4.60;;;6.00;99.90;;;;;;4926623;28;20445;-88
2021/10/14 03:39:22;;;;;;;12.10;5.22;;;6.00;99.90;;;;;;4933681;28;20043;-87
2021/10/14 03:41:48;;;;;;;8.05;4.57;;;6.00;99.90;;;;;;4940635;28;20035;-88
2021/10/14 03:44:17;;;;;;;11.70;6.30;;;6.00;99.90;;;;;;4938890;28;20130;-88
2021/10/14 03:46:43;;;;;;;10.02;5.15;;;6.00;99.90;;;;;;4942764;28;20058;-89
2021/10/14 03:49:09;;;;;;;8.40;5.18;;;6.00;99.90;;;;;;4937188;28;20086;-88
2021/10/14 03:51:35;;;;;;;12.27;5.75;;;6.10;99.90;;;;;;4943333;28;20039;-89
2021/10/14 03:54:01;;;;;;;10.70;5.85;;;6.10;99.90;;;;;;4957155;28;20031;-88
2021/10/14 03:56:28;;;;;;;10.85;5.93;;;6.10;99.90;;;;;;4939167;28;20034;-88
2021/10/14 03:58:54;;;;;;;10.35;5.35;;;6.10;99.90;;;;;;4919687;29;20039;-88
2021/10/14 04:01:20;;;;;;;12.55;5.82;;;6.20;99.90;;;;;;4955084;28;20133;-88
2021/10/14 04:03:45;;;;;;;11.93;6.53;;;6.20;99.90;;;;;;4924992;28;20121;-89
2021/10/14 04:06:11;;;;;;;11.65;6.20;;;6.30;99.90;;;;;;4954617;28;20077;-89
2021/10/14 04:08:37;;;;;;;14.18;7.05;;;6.30;99.90;;;;;;4939907;28;20081;-88
2021/10/14 04:11:03;;;;;;;9.75;6.07;;;6.30;99.90;;;;;;4924690;28;20034;-88
2021/10/14 04:13:29;;;;;;;15.65;7.45;;;6.30;99.90;;;;;;4947808;28;20038;-88
2021/10/14 04:15:55;;;;;;;13.95;6.90;;;6.30;99.90;;;;;;4950948;28;20038;-89
2021/10/14 04:18:21;;;;;;;10.90;6.47;;;6.30;99.90;;;;;;4942085;28;20083;-89
2021/10/14 04:20:47;;;;;;;13.57;6.57;;;6.30;99.90;;;;;;4930099;28;20417;-88
2021/10/14 04:23:13;;;;;;;10.82;6.32;;;6.30;99.90;;;;;;4950787;29;20256;-90
2021/10/14 04:25:38;;;;;;;11.63;5.95;;;6.30;99.90;;;;;;4953327;28;20485;-89
2021/10/14 04:28:04;;;;;;;11.52;6.13;;;6.30;99.90;;;;;;4919553;28;20050;-89
2021/10/14 04:30:30;;;;;;;13.00;6.88;;;6.30;99.90;;;;;;4939969;28;20560;-89
2021/10/14 04:32:56;;;;;;;17.23;8.38;;;6.30;99.90;;;;;;4921143;29;20032;-89
2021/10/14 04:35:22;;;;;;;17.40;8.40;;;6.30;99.90;;;;;;4937757;28;20038;-89
2021/10/14 04:37:48;;;;;;;15.50;7.82;;;6.30;99.90;;;;;;4955511;28;20062;-89
2021/10/14 04:40:14;;;;;;;17.00;7.97;;;6.30;99.90;;;;;;4955312;28;20460;-89
2021/10/14 04:42:40;;;;;;;14.15;7.80;;;6.30;99.90;;;;;;4924012;28;20070;-89
2021/10/14 04:45:06;;;;;;;16.02;8.32;;;6.40;99.90;;;;;;4923844;28;20035;-90
2021/10/14 04:47:33;;;;;;;15.18;7.57;;;6.40;99.90;;;;;;4941869;28;20035;-89
2021/10/14 04:49:59;;;;;;;13.80;7.05;;;6.40;99.90;;;;;;4938904;28;20038;-89
2021/10/14 04:52:25;;;;;;;15.73;7.80;;;6.40;99.90;;;;;;4939685;28;20520;-89
2021/10/14 04:54:50;;;;;;;19.17;8.48;;;6.40;99.90;;;;;;4939306;28;20074;-89
2021/10/14 04:57:30;;;;;;;13.52;7.65;;;6.40;99.90;;;;;;4936945;28;20087;-88
2021/10/14 04:59:56;;;;;;;15.35;8.02;;;6.50;99.90;;;;;;4938666;28;20069;-88
2021/10/14 05:02:22;;;;;;;15.57;7.93;;;6.40;99.90;;;;;;4926254;28;20039;-88
2021/10/14 05:04:48;;;;;;;16.70;8.80;;;6.50;99.90;;;;;;4931991;28;20039;-88
2021/10/14 05:07:13;;;;;;;14.57;7.55;;;6.40;99.90;;;;;;4942927;28;20532;-89
2021/10/14 05:09:39;;;;;;;15.00;7.57;;;6.40;99.90;;;;;;4954728;28;20593;-88
2021/10/14 05:12:06;;;;;;;14.13;8.32;;;6.50;99.90;;;;;;4935950;29;20066;-88
2021/10/14 05:14:31;;;;;;;19.55;8.05;;;6.50;99.90;;;;;;4936195;28;20072;-88
2021/10/14 05:16:57;;;;;;;16.83;8.52;;;6.50;99.90;;;;;;4953180;28;20058;-89
2021/10/14 05:19:23;;;;;;;16.98;8.68;;;6.40;99.90;;;;;;4922528;28;20041;-89
2021/10/14 05:21:50;;;;;;;14.77;8.23;;;6.40;99.90;;;;;;4962992;28;20089;-89
2021/10/14 05:24:16;;;;;;;17.35;8.23;;;6.40;99.90;;;;;;4939535;28;20035;-89
2021/10/14 05:26:42;;;;;;;22.60;9.05;;;6.50;99.90;;;;;;4942088;28;20129;-88
2021/10/14 05:29:08;;;;;;;18.38;9.15;;;6.50;99.90;;;;;;4957739;28;20031;-88
2021/10/14 05:31:34;;;;;;;17.98;8.90;;;6.50;99.90;;;;;;4949791;28;20046;-88
2021/10/14 05:34:00;;;;;;;20.00;9.15;;;6.60;99.90;;;;;;4940180;29;20039;-87
2021/10/14 05:36:26;;;;;;;22.25;8.88;;;6.60;99.90;;;;;;4956262;28;20485;-88
2021/10/14 05:38:52;;;;;;;19.48;9.48;;;6.50;99.90;;;;;;4942351;28;20486;-88
2021/10/14 05:41:18;;;;;;;15.95;8.60;;;6.50;99.90;;;;;;4942906;28;20034;-88
2021/10/14 05:43:44;;;;;;;15.18;8.13;;;6.50;99.90;;;;;;4939947;29;20570;-88
2021/10/14 05:46:10;;;;;;;14.80;8.07;;;6.50;99.90;;;;;;4954148;28;20027;-89
2021/10/14 05:48:39;;;;;;;20.02;8.57;;;6.50;99.90;;;;;;4942909;28;20049;-89
2021/10/14 05:51:05;;;;;;;19.02;9.20;;;6.50;99.90;;;;;;4903589;29;20482;-88
2021/10/14 05:53:31;;;;;;;19.75;9.63;;;6.50;99.90;;;;;;4944351;28;20023;-88
2021/10/14 05:55:57;;;;;;;14.68;7.85;;;6.60;99.90;;;;;;4909105;29;20031;-88
2021/10/14 05:58:23;;;;;;;19.15;7.80;;;6.60;99.90;;;;;;4950251;28;20125;-89
2021/10/14 06:00:49;;;;;;;15.77;7.60;;;6.60;99.90;;;;;;4941858;28;20065;-89
2021/10/14 06:03:15;;;;;;;13.95;7.60;;;6.60;99.90;;;;;;4934215;28;20490;-89
2021/10/14 06:05:41;;;;;;;13.27;7.47;;;6.60;99.90;;;;;;4940820;28;20117;-88
2021/10/14 06:08:06;;;;;;;13.68;7.80;;;6.50;99.90;;;;;;4938574;28;20449;-88
2021/10/14 06:10:32;;;;;;;15.05;7.68;;;6.50;99.90;;;;;;4958415;28;20057;-88
2021/10/14 06:12:58;;;;;;;16.90;7.88;;;6.60;99.90;;;;;;4923557;29;20130;-88
2021/10/14 06:15:24;;;;;;;12.32;6.50;;;6.60;99.90;;;;;;4940640;28;20039;-89
2021/10/14 06:17:49;;;;;;;12.00;6.55;;;6.60;99.90;;;;;;4936566;28;20042;-88
2021/10/14 06:20:15;;;;;;;12.20;6.68;;;6.60;99.90;;;;;;4938788;28;20560;-89
2021/10/14 06:22:41;;;;;;;15.77;6.65;;;6.60;99.90;;;;;;4940450;28;20135;-89
2021/10/14 06:25:07;;;;;;;13.88;7.07;;;6.60;99.90;;;;;;4942133;28;20034;-89
2021/10/14 06:27:33;;;;;;;12.43;6.60;;;6.60;99.90;;;;;;4943487;28;20054;-89
2021/10/14 06:29:59;;;;;;;13.82;6.60;;;6.60;99.90;;;;;;4939000;28;20039;-89
2021/10/14 06:32:26;;;;;;;12.23;5.80;;;6.60;99.90;;;;;;4941241;29;20046;-88
2021/10/14 06:34:53;;;;;;;11.50;5.40;;;6.60;99.90;;;;;;4942950;28;20042;-89
2021/10/14 06:37:19;;;;;;;12.82;5.85;;;6.70;99.90;;;;;;4943071;28;20499;-88
2021/10/14 06:39:44;;;;;;;9.85;5.30;;;6.70;99.90;;;;;;4925479;28;20258;-88
2021/10/14 06:42:10;;;;;;;9.38;5.15;;;6.60;99.90;;;;;;4913052;28;20058;-88
2021/10/14 06:44:36;;;;;;;9.38;4.80;;;6.60;99.90;;;;;;4947234;28;20489;-89
2021/10/14 06:47:02;;;;;;;10.07;5.63;;;6.70;99.90;;;;;;4925052;28;20549;-89
2021/10/14 06:49:28;;;;;;;9.80;4.82;;;6.70;99.90;;;;;;4950460;28;20035;-90
2021/10/14 06:51:55;;;;;;;9.18;5.22;;;6.70;99.90;;;;;;4957015;28;20031;-89
2021/10/14 06:54:22;;;;;;;8.20;5.18;;;6.70;99.90;;;;;;4959917;28;20023;-88
2021/10/14 06:56:47;;;;;;;9.48;5.20;;;6.70;99.90;;;;;;4940914;28;20066;-89
2021/10/14 06:59:13;;;;;;;10.05;4.65;;;6.80;99.90;;;;;;4954000;28;20065;-90
2021/10/14 07:01:39;;;;;;;8.23;4.53;;;6.80;99.90;;;;;;4912030;28;20035;-89
2021/10/14 07:04:05;;;;;;;7.30;4.72;;;6.70;99.90;;;;;;4925886;28;20047;-89
2021/10/14 07:06:45;;;;;;;7.55;5.00;;;6.80;99.90;;;;;;4939693;28;20030;-89
2021/10/14 07:09:11;;;;;;;11.18;4.53;;;6.80;99.90;;;;;;4916233;29;20066;-89
2021/10/14 07:11:43;;;;;;;6.95;4.57;;;6.80;99.90;;;;;;4925657;28;20054;-89
2021/10/14 07:14:09;;;;;;;10.15;4.93;;;6.90;99.90;;;;;;4944024;28;20037;-90
2021/10/14 07:16:35;;;;;;;8.80;5.05;;;6.80;99.90;;;;;;4911997;28;20035;-89
2021/10/14 07:19:01;;;;;;;7.30;4.05;;;6.90;99.90;;;;;;4921189;29;20121;-88
2021/10/14 07:21:28;;;;;;;6.85;3.95;;;6.90;99.90;;;;;;4940566;28;20557;-87
2021/10/14 07:23:58;;;;;;;7.53;3.70;;;6.90;99.90;;;;;;4924616;28;20078;-88
2021/10/14 07:26:24;;;;;;;3.70;3.28;;;6.90;99.90;;;;;;4925983;28;20034;-87
2021/10/14 07:28:49;;;;;;;6.15;3.95;;;7.00;99.90;;;;;;4940273;28;20034;-88
2021/10/14 07:31:16;;;;;;;6.82;3.70;;;7.00;99.90;;;;;;4943467;28;20046;-89
2021/10/14 07:33:42;;;;;;;4.82;3.20;;;7.00;99.90;;;;;;4943487;28;20026;-88
2021/10/14 07:36:08;;;;;;;5.75;3.78;;;7.10;99.90;;;;;;4927430;28;20481;-88
2021/10/14 07:38:34;;;;;;;5.72;3.50;;;7.10;99.90;;;;;;4938763;28;20074;-87
2021/10/14 07:41:00;;;;;;;4.32;3.00;;;7.10;99.90;;;;;;4943614;28;20039;-87
2021/10/14 07:43:26;;;;;;;4.82;3.33;;;7.10;99.90;;;;;;4955148;28;20038;-88
2021/10/14 07:45:52;;;;;;;4.43;3.10;;;7.20;99.90;;;;;;4936583;28;20034;-88
2021/10/14 07:48:18;;;;;;;4.30;2.85;;;7.30;99.90;;;;;;4917080;28;20508;-87
2021/10/14 07:50:44;;;;;;;4.78;2.97;;;7.30;99.90;;;;;;4923797;28;20410;-89
2021/10/14 07:53:18;;;;;;;4.00;2.80;;;7.40;99.90;;;;;;4937624;29;20031;-88
2021/10/14 07:55:48;;;;;;;4.10;2.95;;;7.50;99.90;;;;;;4946485;28;20037;-88
2021/10/14 07:58:14;;;;;;;4.45;2.72;;;7.50;99.90;;;;;;4921796;28;20553;-88
2021/10/14 08:00:40;;;;;;;4.05;2.58;;;7.50;99.90;;;;;;4940125;28;20166;-88
2021/10/14 08:03:06;;;;;;;3.78;2.65;;;7.60;99.90;;;;;;4935741;29;20070;-89
2021/10/14 08:05:32;;;;;;;3.58;2.58;;;7.50;99.90;;;;;;4952861;28;20109;-88
2021/10/14 08:07:59;;;;;;;3.38;2.38;;;7.50;99.90;;;;;;4937024;28;20517;-88
2021/10/14 08:10:26;;;;;;;2.78;2.40;;;7.50;99.90;;;;;;4931793;28;20039;-88
2021/10/14 08:12:52;;;;;;;2.92;2.50;;;7.50;99.90;;;;;;4938002;28;20024;-88
2021/10/14 08:15:17;;;;;;;2.67;1.73;;;7.50;99.90;;;;;;4944977;28;20478;-88
2021/10/14 08:17:43;;;;;;;4.72;1.90;;;7.50;99.90;;;;;;4938200;28;20062;-87
2021/10/14 08:20:10;;;;;;;2.88;2.03;;;7.50;99.90;;;;;;4935779;28;20477;-88
2021/10/14 08:22:36;;;;;;;3.92;2.08;;;7.50;99.90;;;;;;4970178;28;20085;-87
2021/10/14 08:25:07;;;;;;;2.85;1.85;;;7.50;99.90;;;;;;4924689;28;20046;-88
2021/10/14 08:27:33;;;;;;;3.72;1.77;;;7.60;99.90;;;;;;4941070;28;20030;-87
2021/10/14 08:29:58;;;;;;;7.57;2.00;;;7.60;99.90;;;;;;4951914;28;20167;-88
2021/10/14 08:32:24;;;;;;;6.75;1.65;;;7.60;99.90;;;;;;4924310;28;20030;-87
2021/10/14 08:34:50;;;;;;;3.20;2.20;;;7.60;99.90;;;;;;4939817;28;20038;-87
2021/10/14 08:37:22;;;;;;;2.00;1.60;;;7.60;99.90;;;;;;4940145;28;20030;-88
2021/10/14 08:39:52;;;;;;;2.70;1.98;;;7.60;99.90;;;;;;4931215;28;20042;-88
2021/10/14 08:42:18;;;;;;;2.70;1.92;;;7.60;99.90;;;;;;4948088;28;20039;-88
2021/10/14 08:44:44;;;;;;;2.15;1.90;;;7.60;99.90;;;;;;4949382;28;20042;-87
2021/10/14 08:47:14;;;;;;;7.68;2.17;;;7.60;99.90;;;;;;4937483;28;20038;-87
2021/10/14 08:49:45;;;;;;;2.72;2.20;;;7.60;99.90;;;;;;4939151;28;20070;-88
2021/10/14 08:52:12;;;;;;;2.65;2.22;;;7.60;99.90;;;;;;4936350;29;20042;-88
2021/10/14 08:54:38;;;;;;;2.88;2.40;;;7.60;99.90;;;;;;4955648;28;20069;-89
2021/10/14 08:57:04;;;;;;;3.65;2.72;;;7.60;99.90;;;;;;4969309;28;20114;-88
2021/10/14 08:59:30;;;;;;;3.70;2.47;;;7.70;99.90;;;;;;4954337;28;20129;-88
2021/10/14 09:02:15;;;;;;;3.42;2.80;;;7.60;99.90;;;;;;4923890;28;20093;-87
2021/10/14 09:04:55;;;;;;;5.57;2.65;;;7.70;99.90;;;;;;4947710;28;20085;-89
2021/10/14 09:07:23;;;;;;;3.38;2.53;;;7.70;99.90;;;;;;4936659;28;20405;-88
2021/10/14 09:09:50;;;;;;;3.78;2.50;;;7.80;99.90;;;;;;4952303;28;20066;-88
2021/10/14 09:12:18;;;;;;;3.58;2.45;;;7.80;99.90;;;;;;4947492;28;20035;-88
2021/10/14 09:14:56;;;;;;;3.78;2.47;;;7.80;99.90;;;;;;4925251;28;20024;-89
2021/10/14 09:17:37;;;;;;;2.97;2.55;;;7.80;99.90;;;;;;4953358;28;20472;-88
2021/10/14 09:20:32;;;;;;;5.22;2.65;;;7.90;99.90;;;;;;4937797;28;20478;-88
2021/10/14 09:23:05;;;;;;;2.92;2.67;;;7.90;99.90;;;;;;4940177;29;20028;-88
2021/10/14 09:25:38;;;;;;;5.47;2.22;;;7.90;99.90;;;;;;4923395;28;20054;-89
2021/10/14 09:28:10;;;;;;;5.03;2.47;;;8.00;99.90;;;;;;4935863;28;20641;-89
2021/10/14 09:31:06;;;;;;;3.75;2.88;;;8.00;99.90;;;;;;4953121;28;20035;-88
2021/10/14 09:33:37;;;;;;;3.80;2.40;;;8.00;99.90;;;;;;4940985;28;20038;-87
2021/10/14 09:36:24;;;;;;;4.55;3.30;;;8.10;99.90;;;;;;4949829;28;20038;-88
2021/10/14 09:38:52;;;;;;;3.55;2.53;;;8.10;99.90;;;;;;4936328;28;20042;-88
2021/10/14 09:41:21;;;;;;;2.75;2.42;;;8.10;99.90;;;;;;4923744;28;20030;-87
2021/10/14 09:43:51;;;;;;;15.50;2.95;;;8.10;99.90;;;;;;4924531;28;20035;-87
2021/10/14 09:46:36;;;;;;;2.88;2.55;;;8.20;99.90;;;;;;4930889;28;20027;-87
2021/10/14 09:49:04;;;;;;;4.38;3.38;;;8.20;99.90;;;;;;4935242;29;20031;-88
2021/10/14 09:51:31;;;;;;;5.25;3.78;;;8.30;99.90;;;;;;4952338;28;20035;-89
2021/10/14 09:53:59;;;;;;;4.95;3.25;;;8.30;99.90;;;;;;4939811;28;20031;-88
2021/10/14 09:56:26;;;;;;;5.05;3.08;;;8.40;99.90;;;;;;4939396;28;20031;-89
2021/10/14 09:58:53;;;;;;;4.43;3.60;;;8.40;99.90;;;;;;4970338;28;20439;-89
2021/10/14 10:01:19;;;;;;;5.18;3.60;;;8.40;99.90;;;;;;4936714;29;20039;-88
2021/10/14 10:03:45;;;;;;;6.22;3.53;;;8.40;99.90;;;;;;4955425;28;20115;-89
2021/10/14 10:06:13;;;;;;;18.83;3.30;;;8.40;99.90;;;;;;4927417;28;20042;-90
2021/10/14 10:08:42;;;;;;;8.20;3.28;;;8.40;99.90;;;;;;4939617;28;20125;-89
2021/10/14 10:11:12;;;;;;;4.05;3.47;;;8.40;99.90;;;;;;4936613;28;20046;-90
2021/10/14 10:13:44;;;;;;;5.32;4.13;;;8.40;99.90;;;;;;4943016;28;20041;-89
2021/10/14 10:16:18;;;;;;;9.43;3.38;;;8.40;99.90;;;;;;4963970;28;20117;-89
2021/10/14 10:18:59;;;;;;;6.95;3.53;;;8.40;99.90;;;;;;4942785;28;20039;-88
2021/10/14 10:21:31;;;;;;;6.38;4.55;;;8.40;99.90;;;;;;4946116;28;20035;-89
2021/10/14 10:24:01;;;;;;;5.32;4.10;;;8.40;99.90;;;;;;4950390;28;20034;-88
2021/10/14 10:26:33;;;;;;;16.95;4.97;;;8.40;99.90;;;;;;4954465;28;20030;-88
2021/10/14 10:28:59;;;;;;;17.20;5.40;;;8.50;99.90;;;;;;4958279;28;20022;-88
2021/10/14 10:31:45;;;;;;;8.27;5.30;;;8.50;99.90;;;;;;4942532;28;20549;-89
2021/10/14 10:34:46;;;;;;;9.18;5.90;;;8.50;99.90;;;;;;4931809;28;20035;-88
2021/10/14 10:37:36;;;;;;;8.93;5.40;;;8.50;99.90;;;;;;4965720;28;20038;-88
2021/10/14 10:40:11;;;;;;;16.05;6.60;;;8.40;99.90;;;;;;4942397;28;20046;-88
2021/10/14 10:42:59;;;;;;;;;;;8.50;99.90;;;;;;4947172;28;20058;-89
2021/10/14 10:45:30;;;;;;;10.25;6.78;;;8.40;99.90;;;;;;4941689;28;19910;-87
2021/10/14 10:47:59;;;;;;;12.95;6.97;;;8.40;99.90;;;;;;4926902;28;20525;-89
2021/10/14 10:50:33;;;;;;;9.98;6.70;;;8.40;99.90;;;;;;4957556;28;20042;-88
2021/10/14 10:53:05;;;;;;;14.43;7.28;;;8.40;99.90;;;;;;4941479;28;20062;-89
2021/10/14 10:55:31;;;;;;;11.38;6.78;;;8.40;99.90;;;;;;4941604;28;20035;-88
2021/10/14 10:57:57;;;;;;;16.73;8.95;;;8.40;99.90;;;;;;4972249;28;20110;-88
2021/10/14 11:00:24;;;;;;;14.40;7.85;;;8.50;99.90;;;;;;4939448;28;20035;-88
2021/10/14 11:03:17;;;;;;;11.70;7.55;;;8.50;99.90;;;;;;4942080;28;20034;-88
2021/10/14 11:05:47;;;;;;;10.95;7.13;;;8.50;99.90;;;;;;4969921;28;20034;-88
2021/10/14 11:08:22;;;;;;;13.40;7.25;;;8.50;99.90;;;;;;4941353;28;20034;-88
2021/10/14 11:10:50;;;;;;;14.38;8.13;;;8.60;99.90;;;;;;4943317;28;20073;-89
2021/10/14 11:13:16;;;;;;;12.57;7.13;;;8.60;99.90;;;;;;4956341;28;20039;-88
2021/10/14 11:15:47;;;;;;;12.70;7.32;;;8.60;99.90;;;;;;4941729;28;20381;-89
2021/10/14 11:18:13;;;;;;;11.82;7.65;;;8.70;99.90;;;;;;4941277;28;20065;-87
2021/10/14 11:20:54;;;;;;;10.45;6.90;;;8.70;99.90;;;;;;4944795;28;20050;-88
2021/10/14 11:23:21;;;;;;;9.88;6.28;;;8.70;99.90;;;;;;4953336;28;20039;-90
2021/10/14 11:26:01;;;;;;;11.98;6.68;;;8.60;99.90;;;;;;4938176;28;20034;-88
2021/10/14 11:28:27;;;;;;;9.68;6.82;;;8.60;99.90;;;;;;4954463;28;20045;-88
2021/10/14 11:30:56;;;;;;;12.93;7.50;;;8.60;99.90;;;;;;4924937;28;20385;-88
2021/10/14 11:33:34;;;;;;;11.90;7.03;;;8.60;99.90;;;;;;4934906;29;20396;-88
2021/10/14 11:36:05;;;;;;;10.82;7.22;;;8.60;99.90;;;;;;4924636;28;20433;-91
2021/10/14 11:38:32;;;;;;;11.30;7.15;;;8.60;99.90;;;;;;4947297;28;20039;-89
2021/10/14 11:40:59;;;;;;;23.92;7.85;;;8.60;99.90;;;;;;4943655;28;20054;-88
2021/10/14 11:43:31;;;;;;;13.65;8.25;;;8.60;99.90;;;;;;4937554;28;20070;-91
2021/10/14 11:45:58;;;;;;;13.85;8.43;;;8.60;99.90;;;;;;4963152;28;20039;-90
2021/10/14 11:48:34;;;;;;;13.02;8.65;;;8.60;99.90;;;;;;4922012;28;20676;-89
2021/10/14 11:51:01;;;;;;;14.23;9.48;;;8.50;99.90;;;;;;4938782;28;20038;-88
2021/10/14 11:53:27;;;;;;;15.23;9.18;;;8.50;99.90;;;;;;4953272;28;20121;-89
2021/10/14 11:55:57;;;;;;;14.50;8.65;;;8.50;99.90;;;;;;4924967;28;20115;-90
2021/10/14 11:58:24;;;;;;;15.27;8.70;;;8.50;99.90;;;;;;4938073;28;20035;-88
2021/10/14 12:00:50;;;;;;;13.93;8.15;;;8.50;99.90;;;;;;4937227;28;20063;-89
2021/10/14 12:03:17;;;;;;;14.07;8.27;;;8.60;99.90;;;;;;4951645;28;20034;-89
2021/10/14 12:05:44;;;;;;;11.40;7.45;;;8.60;99.90;;;;;;4923295;28;20541;-89
2021/10/14 12:08:09;;;;;;;11.63;7.07;;;8.60;99.90;;;;;;4920171;29;20126;-89
2021/10/14 12:10:38;;;;;;;11.35;7.05;;;8.60;99.90;;;;;;4926408;28;20122;-89
2021/10/14 12:13:05;;;;;;;11.10;7.28;;;8.60;99.90;;;;;;4935148;28;20694;-89
2021/10/14 12:15:32;;;;;;;8.40;6.28;;;8.50;99.90;;;;;;4938050;28;20027;-91
2021/10/14 12:17:57;;;;;;;11.65;6.72;;;8.50;99.90;;;;;;4940307;28;20089;-90
2021/10/14 12:20:25;;;;;;;10.38;6.40;;;8.50;99.90;;;;;;4967290;28;20039;-89
2021/10/14 12:22:58;;;;;;;10.60;6.80;;;8.50;99.90;;;;;;4966396;28;20505;-90
2021/10/14 12:25:34;;;;;;;10.52;7.00;;;8.50;99.90;;;;;;4930569;28;20122;-91
2021/10/14 12:28:01;;;;;;;10.07;6.25;;;8.50;99.90;;;;;;4918722;29;20039;-91
2021/10/14 12:30:38;;;;;;;10.32;6.85;;;8.50;99.90;;;;;;4949662;28;20054;-91
2021/10/14 12:33:10;;;;;;;8.75;5.43;;;8.60;99.90;;;;;;4950245;28;20714;-89
2021/10/14 12:35:36;;;;;;;10.80;6.63;;;8.60;99.90;;;;;;4937634;28;20027;-91
2021/10/14 12:38:14;;;;;;;9.00;6.30;;;8.60;99.90;;;;;;4937915;28;20292;-91
2021/10/14 12:40:45;;;;;;;10.77;6.82;;;8.60;99.90;;;;;;4952521;28;20037;-91
2021/10/14 12:43:22;;;;;;;10.07;6.55;;;8.60;99.90;;;;;;4950081;28;20090;-90
2021/10/14 12:48:41;;;;;;;6.22;4.97;;;8.60;99.90;;;;;;4954904;28;20113;-89
2021/10/14 12:51:25;;;;;;;10.43;5.95;;;8.60;99.90;;;;;;4921770;29;20043;-89
2021/10/14 12:54:04;;;;;;;6.80;5.10;;;8.70;99.90;;;;;;4951535;28;20516;-90
2021/10/14 12:56:41;;;;;;;7.22;5.13;;;8.70;99.90;;;;;;4950437;28;20026;-91
2021/10/14 12:59:08;;;;;;;8.35;5.85;;;8.70;99.90;;;;;;4937053;28;20177;-89
2021/10/14 13:01:36;;;;;;;9.20;6.03;;;8.80;99.90;;;;;;4942854;28;20098;-88